馬祖北竿航空站 - ATIS

METAR RCMT 010500Z 16006KT 9999 FEW016 BKN200 31/23 Q1004 NOSIG RMK A2965(L)=

站台狀態:Online
最後更新:2018-08-15 05:45:01